createdAt,value
2022-09-07T05:28:07.865Z,98970.59
2022-09-07T05:33:10.548Z,98964.00
2022-09-07T05:38:13.277Z,98976.44
2022-09-07T05:43:17.343Z,98974.72
2022-09-07T05:48:20.001Z,98960.16
2022-09-07T05:53:23.113Z,98965.69
2022-09-07T05:58:27.380Z,98970.97
2022-09-07T06:03:30.181Z,98975.28
2022-09-07T06:08:33.928Z,98974.03
2022-09-07T06:13:38.207Z,98977.09
2022-09-07T06:18:42.549Z,98992.75
2022-09-07T06:23:46.211Z,99001.53
2022-09-07T06:28:52.885Z,99011.13
2022-09-07T06:33:58.728Z,99020.16
2022-09-07T06:39:02.400Z,99023.75
2022-09-07T06:44:06.445Z,99022.22
2022-09-07T06:49:09.103Z,99034.66
2022-09-07T06:59:36.181Z,99040.56
2022-09-07T07:04:41.033Z,99042.53
2022-09-07T07:09:44.140Z,99045.81
2022-09-07T07:14:48.209Z,99055.00
2022-09-07T07:19:50.914Z,99048.94
2022-09-07T07:24:53.571Z,99049.00
2022-09-07T07:29:57.859Z,99051.41
2022-09-07T07:35:01.425Z,99055.38
2022-09-07T07:40:22.784Z,99066.59
2022-09-07T07:50:58.347Z,99080.69
2022-09-07T07:56:01.883Z,99081.38
2022-09-07T08:01:07.988Z,99081.72
2022-09-07T08:06:12.162Z,99085.47
2022-09-07T08:11:17.346Z,99080.09
2022-09-07T08:16:21.423Z,99075.66
2022-09-07T08:21:24.157Z,99080.59
2022-09-07T08:26:27.117Z,99078.75
2022-09-07T08:31:31.213Z,99072.59
2022-09-07T08:36:34.215Z,99081.25
2022-09-07T08:41:55.262Z,99069.56
2022-09-07T08:47:01.702Z,99079.63
2022-09-07T08:52:06.579Z,99080.47
2022-09-07T08:57:25.236Z,99100.09
2022-09-07T09:02:32.602Z,99109.34
2022-09-07T09:07:42.085Z,99116.06
2022-09-07T09:12:56.068Z,99108.44
2022-09-07T09:18:04.745Z,99104.19
2022-09-07T09:23:12.323Z,99109.47
2022-09-07T09:28:15.171Z,99109.75
2022-09-07T09:33:20.768Z,99107.88
2022-09-07T09:38:33.104Z,99114.47
2022-09-07T09:43:42.658Z,99107.25
2022-09-07T09:48:53.262Z,99112.56
2022-09-07T09:54:00.995Z,99112.34
2022-09-07T10:04:38.093Z,99104.56
2022-09-07T10:09:43.915Z,99114.34
2022-09-07T10:14:47.860Z,99112.44
2022-09-07T10:19:52.578Z,99113.25
2022-09-07T10:24:55.596Z,99126.78
2022-09-07T10:29:59.157Z,99120.81
2022-09-07T10:35:09.632Z,99127.56
2022-09-07T10:40:21.903Z,99126.78
2022-09-07T10:45:31.695Z,99116.22
2022-09-07T10:50:42.207Z,99117.06
2022-09-07T10:56:01.054Z,99113.78
2022-09-07T11:01:11.805Z,99107.81
2022-09-07T11:06:19.069Z,99096.13
2022-09-07T11:12:00.828Z,99101.31
2022-09-07T11:16:53.533Z,99096.41
2022-09-07T11:22:01.498Z,99092.03
2022-09-07T11:27:08.793Z,99089.59
2022-09-07T11:32:15.033Z,99085.84
2022-09-07T11:37:21.739Z,99090.09
2022-09-07T11:42:43.499Z,99080.38
2022-09-07T11:47:51.062Z,99078.25
2022-09-07T11:52:57.461Z,99066.84
2022-09-07T11:58:17.354Z,99069.59
2022-09-07T12:03:38.201Z,99065.78
2022-09-07T12:08:55.309Z,99069.06
2022-09-07T12:14:15.830Z,99052.53
2022-09-07T12:19:20.697Z,99052.19
2022-09-07T12:24:38.681Z,99052.25
2022-09-07T12:29:45.269Z,99053.59
2022-09-07T12:34:52.612Z,99054.72
2022-09-07T12:40:28.816Z,99058.00
2022-09-07T12:45:53.070Z,99057.47
2022-09-07T12:50:58.844Z,99045.50
2022-09-07T12:56:23.728Z,99048.78
2022-09-07T13:01:37.292Z,99050.69
2022-09-07T13:07:03.715Z,99029.78
2022-09-07T13:17:57.217Z,99029.25
2022-09-07T13:23:22.516Z,99016.22
2022-09-07T13:28:50.321Z,99016.50
2022-09-07T13:33:55.068Z,99019.50
2022-09-07T13:39:06.797Z,99029.31
2022-09-07T13:44:25.086Z,99021.13
2022-09-07T13:49:44.444Z,99020.59
2022-09-07T13:54:56.265Z,99006.75
2022-09-07T13:59:59.240Z,99003.78
2022-09-07T14:05:04.268Z,98996.19
2022-09-07T14:10:13.399Z,98994.56
2022-09-07T14:15:21.041Z,98992.66
2022-09-07T14:20:25.817Z,98983.97
2022-09-07T14:25:28.656Z,98989.41
2022-09-07T14:30:33.279Z,98989.72
2022-09-07T14:35:39.920Z,98982.63
2022-09-07T14:40:42.774Z,98985.63
2022-09-07T14:45:45.508Z,98979.66
2022-09-07T14:51:01.025Z,98978.84
2022-09-07T14:56:20.348Z,98967.44
2022-09-07T15:01:40.056Z,98969.06
2022-09-07T15:07:02.288Z,98961.47
2022-09-07T15:12:18.440Z,98956.84
2022-09-07T15:22:47.946Z,98955.22
2022-09-07T15:27:50.837Z,98956.03
2022-09-07T15:32:53.661Z,98959.31
2022-09-07T15:38:02.274Z,98951.19
2022-09-07T15:43:19.648Z,98945.47
2022-09-07T15:48:25.412Z,98944.66
2022-09-07T15:58:53.201Z,98934.06
2022-09-07T16:03:57.053Z,98925.63
2022-09-07T16:09:01.296Z,98929.16
2022-09-07T16:14:04.773Z,98927.81
2022-09-07T16:19:07.885Z,98919.94
2022-09-07T16:24:12.032Z,98916.91
2022-09-07T16:29:15.347Z,98911.47
2022-09-07T16:34:21.148Z,98916.69
2022-09-07T16:39:25.160Z,98906.06
2022-09-07T16:44:27.874Z,98903.88
2022-09-07T16:49:31.172Z,98902.53
2022-09-07T16:54:35.171Z,98903.84
2022-09-07T16:59:37.883Z,98915.03
2022-09-07T17:04:40.620Z,98905.53
2022-09-07T17:09:44.645Z,98916.94
2022-09-07T17:14:47.275Z,98915.03
2022-09-07T17:19:50.837Z,98918.09
2022-09-07T17:24:56.802Z,98922.72
2022-09-07T17:29:59.492Z,98910.47
2022-09-07T17:35:02.297Z,98887.34
2022-09-07T17:40:07.362Z,98895.81
2022-09-07T17:45:11.633Z,98895.00
2022-09-07T17:50:14.403Z,98901.22
2022-09-07T17:55:18.559Z,98899.84
2022-09-07T18:00:21.381Z,98892.72
2022-09-07T18:05:24.099Z,98882.84
2022-09-07T18:11:45.035Z,98885.66
2022-09-07T18:15:50.891Z,98887.38
2022-09-07T18:20:54.477Z,98882.84
2022-09-07T18:26:00.579Z,98887.38
2022-09-07T18:31:07.957Z,98887.38
2022-09-07T18:36:11.600Z,98883.53
2022-09-07T18:41:16.182Z,98881.31
2022-09-07T18:46:25.203Z,98884.97
2022-09-07T18:51:30.030Z,98894.78
2022-09-07T18:56:34.267Z,98891.50
2022-09-07T19:02:04.679Z,98894.69
2022-09-07T19:07:08.697Z,98879.44
2022-09-07T19:12:12.807Z,98883.53
2022-09-07T19:17:20.957Z,98874.03
2022-09-07T19:22:23.679Z,98878.06
2022-09-07T19:27:28.137Z,98872.31
2022-09-07T19:32:31.114Z,98871.06
2022-09-07T19:37:33.803Z,98872.50
2022-09-07T19:42:37.960Z,98870.25
2022-09-07T19:47:40.694Z,98866.66
2022-09-07T19:52:43.497Z,98862.16
2022-09-07T19:57:47.925Z,98852.81
2022-09-07T20:02:51.001Z,98845.44
2022-09-07T20:07:53.744Z,98838.56
2022-09-07T20:12:57.903Z,98829.94
2022-09-07T20:18:00.666Z,98821.53
2022-09-07T20:23:03.455Z,98816.00
2022-09-07T20:28:07.582Z,98802.69
2022-09-07T20:33:10.292Z,98811.97
2022-09-07T20:38:13.242Z,98807.00
2022-09-07T20:43:17.308Z,98814.03
2022-09-07T20:48:20.037Z,98803.63
2022-09-07T20:53:22.751Z,98810.69
2022-09-07T20:58:27.287Z,98806.34
2022-09-07T21:03:30.051Z,98810.16
2022-09-07T21:08:36.255Z,98793.94
2022-09-07T21:13:40.307Z,98784.19
2022-09-07T21:18:44.023Z,98792.78
2022-09-07T21:23:46.793Z,98786.84
2022-09-07T21:28:55.379Z,98783.50
2022-09-07T21:33:59.916Z,98781.31
2022-09-07T21:39:02.658Z,98787.53
2022-09-07T21:44:06.779Z,98787.31
2022-09-07T21:49:09.692Z,98779.22
2022-09-07T21:54:12.367Z,98760.41
2022-09-07T21:59:16.416Z,98761.22
2022-09-07T22:04:19.112Z,98766.09
2022-09-07T22:09:21.970Z,98771.44
2022-09-07T22:14:26.081Z,98770.34
2022-09-07T22:19:28.878Z,98762.19
2022-09-07T22:24:31.590Z,98774.34
2022-09-07T22:29:35.647Z,98770.81
2022-09-07T22:34:38.356Z,98766.69
2022-09-07T22:39:41.103Z,98769.72
2022-09-07T22:44:45.214Z,98766.66
2022-09-07T22:49:48.004Z,98764.72
2022-09-07T22:54:50.703Z,98761.56
2022-09-07T22:59:54.796Z,98770.22
2022-09-07T23:04:57.606Z,98763.78
2022-09-07T23:10:00.838Z,98756.00
2022-09-07T23:15:05.343Z,98762.22
2022-09-07T23:20:09.056Z,98739.75
2022-09-07T23:25:11.779Z,98728.13
2022-09-07T23:30:16.068Z,98724.59
2022-09-07T23:35:18.770Z,98718.03
2022-09-07T23:40:21.700Z,98705.31
2022-09-07T23:45:26.002Z,98692.81
2022-09-07T23:50:28.691Z,98688.59
2022-09-07T23:55:31.571Z,98679.72
